Time;durP1;ratioP1;P1;durP2;ratioP2;P2;SDS_P1;SDS_P2;PMS_P1;PMS_P2;Temp;Humidity;BMP_temperature;BMP_pressure;BME280_temperature;BME280_humidity;BME280_pressure;Samples;Min_cycle;Max_cycle;Signal;HPM_P1;HPM_P2
2020/12/25 00:00:21;;;;;;;21.92;16.38;;;10.70;93.00;;;;;;5094730;28;20028;-73
2020/12/25 00:02:46;;;;;;;21.25;15.63;;;10.70;92.90;;;;;;5093611;28;20455;-72
2020/12/25 00:05:12;;;;;;;19.63;15.07;;;10.70;93.20;;;;;;5094169;28;20028;-74
2020/12/25 00:07:38;;;;;;;18.35;14.02;;;10.70;93.10;;;;;;5092978;28;20036;-74
2020/12/25 00:10:04;;;;;;;16.48;13.32;;;10.60;92.70;;;;;;5094602;28;20038;-73
2020/12/25 00:12:30;;;;;;;15.80;12.68;;;10.60;92.70;;;;;;5092896;28;20024;-72
2020/12/25 00:14:55;;;;;;;17.88;13.07;;;10.60;92.60;;;;;;5092868;28;20024;-72
2020/12/25 00:17:21;;;;;;;15.50;12.40;;;10.60;92.90;;;;;;5093160;28;20059;-74
2020/12/25 00:19:47;;;;;;;15.80;11.63;;;10.60;93.00;;;;;;5093137;28;20031;-72
2020/12/25 00:22:13;;;;;;;15.73;11.50;;;10.50;93.20;;;;;;5092790;28;20028;-73
2020/12/25 00:24:40;;;;;;;15.98;11.88;;;10.50;93.30;;;;;;5092950;28;20024;-75
2020/12/25 00:27:06;;;;;;;15.60;12.20;;;10.50;93.20;;;;;;5092995;28;20028;-74
2020/12/25 00:29:32;;;;;;;16.98;12.63;;;10.40;93.30;;;;;;5092673;28;20052;-74
2020/12/25 00:31:58;;;;;;;14.32;12.07;;;10.40;93.20;;;;;;5093743;28;20055;-73
2020/12/25 00:34:23;;;;;;;15.95;12.13;;;10.40;93.00;;;;;;5094334;28;20058;-75
2020/12/25 00:36:49;;;;;;;15.00;12.60;;;10.40;93.10;;;;;;5092477;28;20494;-77
2020/12/25 00:39:17;;;;;;;15.25;11.50;;;10.30;93.40;;;;;;5093131;28;20024;-75
2020/12/25 00:41:44;;;;;;;15.27;12.27;;;10.30;93.60;;;;;;5092734;28;20032;-73
2020/12/25 00:44:12;;;;;;;14.77;11.27;;;10.30;93.60;;;;;;5092386;28;20077;-73
2020/12/25 00:46:38;;;;;;;15.70;11.20;;;10.30;93.10;;;;;;5094434;28;20059;-71
2020/12/25 00:49:04;;;;;;;13.75;10.77;;;10.30;93.00;;;;;;5092651;28;20483;-73
2020/12/25 00:51:30;;;;;;;13.30;10.18;;;10.20;93.50;;;;;;5092657;28;20028;-74
2020/12/25 00:53:55;;;;;;;15.15;11.20;;;10.30;93.00;;;;;;5092620;28;20028;-73
2020/12/25 00:56:21;;;;;;;13.57;10.23;;;10.20;93.40;;;;;;5093011;28;20403;-71
2020/12/25 00:58:47;;;;;;;12.93;10.32;;;10.10;93.30;;;;;;5092630;28;20020;-72
2020/12/25 01:01:14;;;;;;;15.23;10.88;;;10.20;93.50;;;;;;5092642;28;20158;-75
2020/12/25 01:03:41;;;;;;;15.38;10.40;;;10.10;93.60;;;;;;5092263;28;20031;-71
2020/12/25 01:06:15;;;;;;;13.73;10.60;;;10.10;93.30;;;;;;5093735;28;20483;-73
2020/12/25 01:08:41;;;;;;;13.88;9.95;;;10.10;93.60;;;;;;5092472;28;20032;-73
2020/12/25 01:11:08;;;;;;;14.88;10.20;;;10.10;93.50;;;;;;5092539;28;20032;-72
2020/12/25 01:13:35;;;;;;;11.88;9.32;;;10.10;93.50;;;;;;5093900;28;20024;-72
2020/12/25 01:16:05;;;;;;;12.13;9.50;;;10.00;93.40;;;;;;5092436;28;20430;-73
2020/12/25 01:18:31;;;;;;;12.07;9.48;;;10.00;93.70;;;;;;5093466;28;20099;-71
2020/12/25 01:20:57;;;;;;;12.98;9.80;;;9.90;93.40;;;;;;5092416;28;20062;-72
2020/12/25 01:23:23;;;;;;;13.73;9.15;;;9.90;93.40;;;;;;5093755;28;20417;-73
2020/12/25 01:25:49;;;;;;;11.13;8.38;;;9.90;93.40;;;;;;5091894;28;20472;-75
2020/12/25 01:28:15;;;;;;;13.40;9.40;;;9.90;93.40;;;;;;5091152;28;20035;-73
2020/12/25 01:30:41;;;;;;;11.48;8.57;;;10.00;93.30;;;;;;5090504;28;20063;-73
2020/12/25 01:33:07;;;;;;;10.27;8.63;;;9.90;93.40;;;;;;5090114;28;20576;-73
2020/12/25 01:35:32;;;;;;;10.27;7.57;;;9.90;93.30;;;;;;5090289;28;20110;-72
2020/12/25 01:37:58;;;;;;;9.65;7.45;;;10.00;93.30;;;;;;5091445;28;20031;-74
2020/12/25 01:40:24;;;;;;;11.00;7.70;;;9.90;93.10;;;;;;5090689;28;20024;-73
2020/12/25 01:42:50;;;;;;;9.18;7.22;;;9.90;93.00;;;;;;5090955;28;20028;-73
2020/12/25 01:45:15;;;;;;;9.38;6.80;;;9.90;93.00;;;;;;5096734;28;20109;-75
2020/12/25 01:47:41;;;;;;;9.55;7.38;;;9.90;93.00;;;;;;5095991;28;20085;-75
2020/12/25 01:50:08;;;;;;;9.75;6.60;;;9.90;92.80;;;;;;5095966;28;20028;-73
2020/12/25 01:52:36;;;;;;;8.20;6.82;;;9.80;93.00;;;;;;5095985;28;20511;-73
2020/12/25 01:55:06;;;;;;;8.20;6.38;;;9.80;93.00;;;;;;5097225;28;20032;-74
2020/12/25 01:57:32;;;;;;;9.30;6.43;;;9.80;92.80;;;;;;5095872;28;20055;-74
2020/12/25 01:59:59;;;;;;;7.57;5.90;;;9.80;92.90;;;;;;5095546;28;20048;-75
2020/12/25 02:02:25;;;;;;;7.63;6.10;;;9.80;92.70;;;;;;5095775;28;20383;-75
2020/12/25 02:04:52;;;;;;;7.57;5.90;;;9.80;92.60;;;;;;5096898;28;20525;-75
2020/12/25 02:07:18;;;;;;;7.07;6.20;;;9.70;92.70;;;;;;5096713;28;20098;-73
2020/12/25 02:09:44;;;;;;;7.32;6.05;;;9.60;92.80;;;;;;5095623;28;20036;-75
2020/12/25 02:12:10;;;;;;;12.23;8.25;;;9.60;92.90;;;;;;5095482;28;20026;-75
2020/12/25 02:14:36;;;;;;;10.40;7.75;;;9.60;92.90;;;;;;5096826;28;20107;-74
2020/12/25 02:17:02;;;;;;;13.57;9.20;;;9.50;92.80;;;;;;5095201;28;20034;-75
2020/12/25 02:19:27;;;;;;;10.93;7.78;;;9.50;92.80;;;;;;5095108;28;20032;-75
2020/12/25 02:21:53;;;;;;;10.50;7.75;;;9.50;93.00;;;;;;5096625;28;20024;-74
2020/12/25 02:24:19;;;;;;;26.42;16.52;;;9.50;92.90;;;;;;5095263;28;20470;-72
2020/12/25 02:26:45;;;;;;;53.45;30.13;;;9.40;92.90;;;;;;5095275;28;20028;-74
2020/12/25 02:29:10;;;;;;;52.88;31.70;;;9.40;93.00;;;;;;5096038;28;20021;-73
2020/12/25 02:31:36;;;;;;;48.42;29.88;;;9.40;93.10;;;;;;5095163;28;20052;-73
2020/12/25 02:34:02;;;;;;;25.02;16.25;;;9.40;93.10;;;;;;5095886;28;20032;-73
2020/12/25 02:36:28;;;;;;;29.08;17.33;;;9.40;93.20;;;;;;5094982;28;20057;-73
2020/12/25 02:38:54;;;;;;;61.35;30.40;;;9.40;93.30;;;;;;5095228;28;20073;-74
2020/12/25 02:41:21;;;;;;;59.83;34.15;;;9.30;93.60;;;;;;5094633;28;20110;-74
2020/12/25 02:43:48;;;;;;;78.50;49.10;;;9.30;93.40;;;;;;5094954;28;20024;-73
2020/12/25 02:46:14;;;;;;;72.90;44.33;;;9.30;93.50;;;;;;5094500;28;20056;-73
2020/12/25 02:48:40;;;;;;;49.58;32.85;;;9.40;93.30;;;;;;5094511;28;20020;-74
2020/12/25 02:51:05;;;;;;;49.28;31.38;;;9.40;93.30;;;;;;5095071;28;20028;-72
2020/12/25 02:53:31;;;;;;;47.05;32.00;;;9.40;93.30;;;;;;5094921;28;20438;-74
2020/12/25 02:55:57;;;;;;;31.80;21.27;;;9.40;93.20;;;;;;5095586;28;20028;-74
2020/12/25 02:58:22;;;;;;;19.52;12.45;;;9.50;92.80;;;;;;5094931;28;20032;-73
2020/12/25 03:00:48;;;;;;;12.18;8.05;;;9.50;92.70;;;;;;5094503;28;20028;-75
2020/12/25 03:03:14;;;;;;;13.85;9.25;;;9.50;92.50;;;;;;5094278;28;20027;-74
2020/12/25 03:05:40;;;;;;;14.70;9.73;;;9.60;92.50;;;;;;5095259;28;20334;-73
2020/12/25 03:08:06;;;;;;;11.30;7.32;;;9.60;92.30;;;;;;5095804;28;20441;-75
2020/12/25 03:10:31;;;;;;;7.35;4.75;;;9.60;92.30;;;;;;5095461;28;20111;-75
2020/12/25 03:12:57;;;;;;;27.27;15.63;;;9.50;92.50;;;;;;5094396;28;20120;-73
2020/12/25 03:15:24;;;;;;;28.23;15.73;;;9.50;92.50;;;;;;5094629;28;20052;-74
2020/12/25 03:17:50;;;;;;;22.23;13.38;;;9.40;92.80;;;;;;5094233;28;20039;-75
2020/12/25 03:20:15;;;;;;;24.65;13.68;;;9.30;93.00;;;;;;5094261;28;20024;-72
2020/12/25 03:22:41;;;;;;;23.52;13.05;;;9.20;93.40;;;;;;5095148;28;20077;-72
2020/12/25 03:25:07;;;;;;;24.95;14.25;;;9.10;93.40;;;;;;5093779;28;20047;-72
2020/12/25 03:27:32;;;;;;;21.85;12.38;;;9.10;93.60;;;;;;5094629;28;20524;-74
2020/12/25 03:29:58;;;;;;;16.80;10.63;;;9.00;94.00;;;;;;5093753;28;20115;-74
2020/12/25 03:32:24;;;;;;;15.18;9.95;;;9.00;94.40;;;;;;5094786;28;20024;-72
2020/12/25 03:34:50;;;;;;;20.00;12.07;;;8.90;94.90;;;;;;5093972;28;20032;-72
2020/12/25 03:37:16;;;;;;;18.63;12.88;;;8.90;95.20;;;;;;5094875;28;20024;-73
2020/12/25 03:39:41;;;;;;;17.33;12.23;;;8.90;95.10;;;;;;5094167;28;20093;-73
2020/12/25 03:42:07;;;;;;;14.15;9.60;;;8.90;95.20;;;;;;5094111;28;20450;-72
2020/12/25 03:44:33;;;;;;;11.57;8.50;;;8.90;95.10;;;;;;5094418;28;20391;-72
2020/12/25 03:46:58;;;;;;;11.65;7.57;;;8.80;95.20;;;;;;5093827;28;20375;-72
2020/12/25 03:49:24;;;;;;;11.38;6.38;;;8.90;95.40;;;;;;5093510;28;20030;-72
2020/12/25 03:51:50;;;;;;;10.20;5.95;;;8.90;95.10;;;;;;5093089;28;20024;-72
2020/12/25 03:54:16;;;;;;;8.52;6.18;;;9.00;95.10;;;;;;5093571;28;20024;-72
2020/12/25 03:56:41;;;;;;;8.30;5.63;;;9.00;95.40;;;;;;5095405;28;20050;-72
2020/12/25 03:59:07;;;;;;;11.65;7.95;;;9.00;95.20;;;;;;5094546;28;20020;-73
2020/12/25 04:01:33;;;;;;;58.28;29.00;;;8.90;95.30;;;;;;5095072;28;20024;-73
2020/12/25 04:03:58;;;;;;;53.92;26.70;;;9.00;95.40;;;;;;5093420;28;20028;-74
2020/12/25 04:06:24;;;;;;;68.97;34.60;;;9.00;95.00;;;;;;5092449;28;20032;-72
2020/12/25 04:08:50;;;;;;;41.92;26.13;;;9.10;95.10;;;;;;5093451;28;20032;-71
2020/12/25 04:11:15;;;;;;;74.43;42.20;;;9.00;95.30;;;;;;5093383;28;20531;-72
2020/12/25 04:13:41;;;;;;;35.38;22.50;;;9.00;95.30;;;;;;5092950;28;20078;-71
2020/12/25 04:16:07;;;;;;;36.33;21.15;;;9.00;95.50;;;;;;5093201;28;20040;-70
2020/12/25 04:18:33;;;;;;;119.10;52.42;;;9.00;95.50;;;;;;5094570;28;20065;-69
2020/12/25 04:20:59;;;;;;;54.22;28.52;;;9.00;95.50;;;;;;5093882;28;20053;-72
2020/12/25 04:23:27;;;;;;;130.60;57.65;;;9.10;95.30;;;;;;5093047;28;20031;-72
2020/12/25 04:25:53;;;;;;;70.78;33.78;;;9.10;95.20;;;;;;5092752;28;20036;-72
2020/12/25 04:28:19;;;;;;;28.42;16.30;;;9.10;95.10;;;;;;5092961;28;20039;-70
2020/12/25 04:30:45;;;;;;;27.75;17.30;;;9.10;95.30;;;;;;5093188;28;20024;-72
2020/12/25 04:33:11;;;;;;;26.42;18.70;;;9.00;95.60;;;;;;5092658;28;20027;-71
2020/12/25 04:35:37;;;;;;;19.45;13.55;;;8.80;95.90;;;;;;5093050;28;20468;-70
2020/12/25 04:38:02;;;;;;;13.95;10.88;;;8.80;96.20;;;;;;5093015;28;20113;-71
2020/12/25 04:40:30;;;;;;;17.05;10.10;;;8.70;96.20;;;;;;5093564;28;20495;-71
2020/12/25 04:42:58;;;;;;;13.90;9.90;;;8.70;96.40;;;;;;5094053;28;20024;-69
2020/12/25 04:45:24;;;;;;;27.45;17.52;;;8.70;96.60;;;;;;5092404;28;20087;-72
2020/12/25 04:47:52;;;;;;;26.75;19.40;;;8.70;96.40;;;;;;5093770;28;20054;-72
2020/12/25 04:50:18;;;;;;;24.30;17.45;;;8.70;96.50;;;;;;5093747;28;20069;-73
2020/12/25 04:52:48;;;;;;;19.65;14.82;;;8.60;96.70;;;;;;5094259;28;20062;-71
2020/12/25 04:55:13;;;;;;;17.00;13.15;;;8.60;96.90;;;;;;5092306;28;20028;-71
2020/12/25 04:57:39;;;;;;;26.25;16.75;;;8.60;97.00;;;;;;5092614;28;20031;-71
2020/12/25 05:00:18;;;;;;;21.42;14.85;;;8.60;96.90;;;;;;5092617;28;20024;-73
2020/12/25 05:02:47;;;;;;;24.05;16.35;;;8.60;96.80;;;;;;5092231;28;20118;-71
2020/12/25 05:05:15;;;;;;;13.63;10.45;;;8.50;97.00;;;;;;5092489;28;20384;-73
2020/12/25 05:07:41;;;;;;;11.82;9.00;;;8.30;97.30;;;;;;5092802;28;20024;-71
2020/12/25 05:10:07;;;;;;;16.83;11.43;;;8.40;97.50;;;;;;5092175;28;20514;-71
2020/12/25 05:12:34;;;;;;;16.27;11.65;;;8.50;97.10;;;;;;5093748;28;20111;-70
2020/12/25 05:15:05;;;;;;;17.20;11.38;;;8.50;97.10;;;;;;5092099;28;20039;-70
2020/12/25 05:17:31;;;;;;;19.33;12.02;;;8.50;97.30;;;;;;5094056;28;20472;-70
2020/12/25 05:19:57;;;;;;;19.08;13.00;;;8.50;97.10;;;;;;5097851;28;20020;-70
2020/12/25 05:22:25;;;;;;;23.35;15.45;;;8.40;97.40;;;;;;5096196;28;20024;-73
2020/12/25 05:24:51;;;;;;;25.17;16.13;;;8.40;97.40;;;;;;5096415;28;20105;-69
2020/12/25 05:27:18;;;;;;;22.20;14.73;;;8.30;97.50;;;;;;5096459;28;20028;-70
2020/12/25 05:29:44;;;;;;;28.25;21.35;;;8.30;97.70;;;;;;5097328;28;20024;-70
2020/12/25 05:32:09;;;;;;;19.48;14.93;;;8.40;97.40;;;;;;5096333;28;20046;-73
2020/12/25 05:34:36;;;;;;;19.33;14.10;;;8.50;97.30;;;;;;5097276;28;20024;-71
2020/12/25 05:37:03;;;;;;;24.13;16.40;;;8.40;97.40;;;;;;5095927;28;20432;-71
2020/12/25 05:39:34;;;;;;;24.80;17.48;;;8.40;97.50;;;;;;5096251;28;20028;-71
2020/12/25 05:42:05;;;;;;;43.72;27.98;;;8.40;97.60;;;;;;5096751;28;20027;-70
2020/12/25 05:44:54;;;;;;;68.45;41.15;;;8.40;97.50;;;;;;5096925;28;20028;-71
2020/12/25 05:47:20;;;;;;;110.68;67.13;;;8.40;97.60;;;;;;5096679;28;20412;-71
2020/12/25 05:49:45;;;;;;;66.53;42.13;;;8.40;97.50;;;;;;5095673;28;20105;-71
2020/12/25 05:52:15;;;;;;;114.68;65.18;;;8.50;97.30;;;;;;5097220;28;20043;-70
2020/12/25 05:54:44;;;;;;;81.30;45.47;;;8.50;97.20;;;;;;5095837;28;20066;-69
2020/12/25 05:57:13;;;;;;;77.15;42.88;;;8.50;97.00;;;;;;5096608;28;20020;-71
2020/12/25 05:59:44;;;;;;;132.32;66.63;;;8.60;96.90;;;;;;5095719;28;20024;-73
2020/12/25 06:02:14;;;;;;;153.15;75.63;;;8.70;96.80;;;;;;5095717;28;20027;-71
2020/12/25 06:04:41;;;;;;;107.25;56.83;;;8.70;96.70;;;;;;5096499;28;20024;-73
2020/12/25 06:07:10;;;;;;;98.78;55.08;;;8.70;96.50;;;;;;5095572;28;20471;-72
2020/12/25 06:09:44;;;;;;;85.30;46.08;;;8.70;96.70;;;;;;5096647;28;20020;-71
2020/12/25 06:12:14;;;;;;;33.50;20.87;;;8.80;96.10;;;;;;5095668;28;20024;-71
2020/12/25 06:14:40;;;;;;;25.67;17.85;;;8.80;96.00;;;;;;5097183;28;20719;-71
2020/12/25 06:17:20;;;;;;;24.27;18.38;;;8.80;96.10;;;;;;5095494;28;20024;-70
2020/12/25 06:20:04;;;;;;;106.63;50.03;;;8.80;96.40;;;;;;5096496;28;20016;-70
2020/12/25 06:22:48;;;;;;;167.95;83.40;;;8.70;96.60;;;;;;5095583;28;20093;-72
2020/12/25 06:25:16;;;;;;;92.47;47.65;;;8.70;96.50;;;;;;5095975;28;20064;-71
2020/12/25 06:27:57;;;;;;;115.53;55.30;;;8.70;96.50;;;;;;5095795;28;20036;-72
2020/12/25 06:30:24;;;;;;;172.18;82.85;;;8.70;96.60;;;;;;5094452;28;20020;-71
2020/12/25 06:32:53;;;;;;;134.77;73.25;;;8.70;96.60;;;;;;5094850;28;20456;-72
2020/12/25 06:35:35;;;;;;;71.13;48.30;;;8.70;96.50;;;;;;5095759;28;20442;-72
2020/12/25 06:38:18;;;;;;;74.85;46.13;;;8.70;96.70;;;;;;5096074;28;20024;-71
2020/12/25 06:40:46;;;;;;;83.03;48.33;;;8.70;96.70;;;;;;5094755;28;20028;-71
2020/12/25 06:43:19;;;;;;;123.43;68.88;;;8.70;96.50;;;;;;5095471;28;20111;-70
2020/12/25 06:45:57;;;;;;;140.15;80.75;;;8.60;96.60;;;;;;5095789;28;20373;-70
2020/12/25 06:48:23;;;;;;;120.57;73.32;;;8.70;96.30;;;;;;5096139;28;20365;-70
2020/12/25 06:50:54;;;;;;;69.28;42.40;;;8.70;96.60;;;;;;5094855;28;20027;-70
2020/12/25 06:53:41;;;;;;;114.85;61.53;;;8.80;96.20;;;;;;5095797;28;20016;-72
2020/12/25 06:56:12;;;;;;;67.10;38.53;;;8.80;96.30;;;;;;5094828;28;20038;-71
2020/12/25 06:58:47;;;;;;;75.15;54.17;;;8.80;96.40;;;;;;5096104;28;20090;-71
2020/12/25 07:01:17;;;;;;;63.65;44.40;;;8.70;96.70;;;;;;5095934;28;20349;-70
2020/12/25 07:03:43;;;;;;;63.67;42.78;;;8.80;96.50;;;;;;5094645;28;20032;-71
2020/12/25 07:06:11;;;;;;;49.92;34.60;;;8.80;96.40;;;;;;5094431;28;20036;-70
2020/12/25 07:08:48;;;;;;;35.83;24.65;;;8.80;96.60;;;;;;5094163;28;20021;-71
2020/12/25 07:11:16;;;;;;;36.30;23.98;;;8.90;96.30;;;;;;5094509;28;20024;-69
2020/12/25 07:13:42;;;;;;;78.85;44.22;;;8.90;96.20;;;;;;5094412;28;20499;-71
2020/12/25 07:16:08;;;;;;;102.85;78.88;;;8.80;96.50;;;;;;5094058;28;20032;-71
2020/12/25 07:18:34;;;;;;;87.22;61.58;;;8.80;96.40;;;;;;5095605;28;20472;-70
2020/12/25 07:21:02;;;;;;;180.38;117.20;;;8.80;96.20;;;;;;5094275;28;20024;-69
2020/12/25 07:23:28;;;;;;;133.15;99.25;;;8.70;96.60;;;;;;5095481;28;20594;-71
2020/12/25 07:26:02;;;;;;;92.88;69.25;;;8.80;96.60;;;;;;5095060;28;20107;-71
2020/12/25 07:28:29;;;;;;;75.65;55.58;;;8.70;96.70;;;;;;5095113;28;20492;-69
2020/12/25 07:30:56;;;;;;;49.22;34.25;;;8.70;96.30;;;;;;5094076;28;20038;-71
2020/12/25 07:33:23;;;;;;;54.33;40.85;;;8.70;96.40;;;;;;5095339;28;20356;-71
2020/12/25 07:35:50;;;;;;;47.75;27.40;;;8.80;96.40;;;;;;5093697;28;20471;-70
2020/12/25 07:38:17;;;;;;;51.40;35.35;;;8.90;96.30;;;;;;5093924;28;20036;-71
2020/12/25 07:40:44;;;;;;;84.85;51.88;;;8.80;96.60;;;;;;5093933;28;20028;-71
2020/12/25 07:43:11;;;;;;;78.97;48.65;;;8.70;96.80;;;;;;5093251;28;20024;-70
2020/12/25 07:45:38;;;;;;;170.18;112.10;;;8.70;97.00;;;;;;5094821;28;20059;-70
2020/12/25 07:48:05;;;;;;;73.32;51.75;;;8.70;96.90;;;;;;5093728;28;20420;-72
2020/12/25 07:50:41;;;;;;;94.30;68.97;;;8.80;96.70;;;;;;5093329;28;20024;-71
2020/12/25 07:53:12;;;;;;;54.65;37.65;;;8.80;96.90;;;;;;5095221;28;20024;-72
2020/12/25 07:55:39;;;;;;;33.83;24.85;;;8.80;96.00;;;;;;5095183;28;20031;-71
2020/12/25 07:58:05;;;;;;;31.42;21.73;;;9.00;96.30;;;;;;5094492;28;20024;-71
2020/12/25 08:00:31;;;;;;;50.45;32.72;;;8.90;96.50;;;;;;5093496;28;20051;-71
2020/12/25 08:02:58;;;;;;;140.65;101.13;;;8.90;96.50;;;;;;5094926;28;20024;-72
2020/12/25 08:05:28;;;;;;;109.63;76.53;;;9.00;96.20;;;;;;5093315;28;20468;-71
2020/12/25 08:07:55;;;;;;;45.05;33.22;;;9.00;96.10;;;;;;5093118;28;20024;-71
2020/12/25 08:10:22;;;;;;;38.63;27.17;;;8.80;96.40;;;;;;5092916;28;20070;-70
2020/12/25 08:12:50;;;;;;;37.92;24.08;;;8.80;96.80;;;;;;5093673;28;20028;-71
2020/12/25 08:15:18;;;;;;;42.33;28.10;;;8.90;96.60;;;;;;5092951;28;20032;-72
2020/12/25 08:17:46;;;;;;;395.60;212.52;;;8.90;96.20;;;;;;5092820;28;20027;-71
2020/12/25 08:20:13;;;;;;;151.73;91.47;;;9.00;96.20;;;;;;5093035;28;20462;-70
2020/12/25 08:22:38;;;;;;;93.93;62.78;;;9.10;96.30;;;;;;5093077;28;20032;-71
2020/12/25 08:25:05;;;;;;;121.57;76.40;;;9.00;96.20;;;;;;5092880;28;20165;-73
2020/12/25 08:27:34;;;;;;;246.88;145.88;;;9.00;96.30;;;;;;5094652;28;20024;-71
2020/12/25 08:30:02;;;;;;;528.75;308.75;;;9.00;96.10;;;;;;5092836;28;20022;-69
2020/12/25 08:32:30;;;;;;;1697.43;696.95;;;9.10;96.00;;;;;;5092571;28;20115;-70
2020/12/25 08:35:13;;;;;;;1089.63;498.27;;;9.10;95.60;;;;;;5093415;28;20050;-71
2020/12/25 08:37:49;;;;;;;559.55;255.18;;;9.20;95.90;;;;;;5093936;28;20024;-72
2020/12/25 08:40:16;;;;;;;1041.90;482.80;;;9.20;95.90;;;;;;5092840;28;20021;-69
2020/12/25 08:42:42;;;;;;;206.75;99.55;;;9.20;96.00;;;;;;5092782;28;20532;-70
2020/12/25 08:45:09;;;;;;;110.70;82.38;;;9.10;96.30;;;;;;5093540;28;20450;-71
2020/12/25 08:47:35;;;;;;;85.35;61.15;;;9.00;96.30;;;;;;5093941;28;20034;-72
2020/12/25 08:50:01;;;;;;;207.55;94.55;;;9.00;96.50;;;;;;5092346;28;20115;-71
2020/12/25 08:52:28;;;;;;;181.13;84.72;;;9.00;96.30;;;;;;5091546;28;20452;-70
2020/12/25 08:54:58;;;;;;;1999.90;822.95;;;9.10;95.60;;;;;;5092090;28;20490;-71
2020/12/25 08:57:25;;;;;;;882.90;416.13;;;9.20;95.80;;;;;;5093635;28;20024;-68
2020/12/25 09:00:20;;;;;;;428.35;211.52;;;9.20;95.90;;;;;;5092610;28;20024;-71
2020/12/25 09:02:58;;;;;;;371.20;173.13;;;9.20;96.10;;;;;;5083508;28;20032;-70
2020/12/25 09:05:24;;;;;;;63.15;43.42;;;9.20;96.20;;;;;;5093775;28;20476;-71
2020/12/25 09:07:50;;;;;;;786.50;345.30;;;9.10;96.50;;;;;;5092206;28;20026;-70
2020/12/25 09:10:16;;;;;;;1059.78;537.92;;;9.10;96.20;;;;;;5092412;28;20027;-74
2020/12/25 09:12:41;;;;;;;690.70;352.15;;;9.20;96.20;;;;;;5093510;28;20119;-70
2020/12/25 09:15:07;;;;;;;1999.90;931.90;;;9.20;95.80;;;;;;5093301;28;20031;-71
2020/12/25 09:17:33;;;;;;;591.22;361.48;;;9.30;96.30;;;;;;5093440;28;20028;-71
2020/12/25 09:19:59;;;;;;;308.42;160.15;;;9.30;96.10;;;;;;5092467;28;20107;-71
2020/12/25 09:22:25;;;;;;;667.72;451.30;;;9.30;95.10;;;;;;5092387;28;20020;-70
2020/12/25 09:24:50;;;;;;;331.95;222.38;;;9.40;95.30;;;;;;5090857;28;20020;-71
2020/12/25 09:27:16;;;;;;;956.90;623.17;;;9.40;95.40;;;;;;5093222;28;20040;-71
2020/12/25 09:29:42;;;;;;;488.98;336.98;;;9.40;95.70;;;;;;5091481;28;20032;-71
2020/12/25 09:32:08;;;;;;;517.03;355.40;;;9.40;95.40;;;;;;5093520;28;20024;-70
2020/12/25 09:34:33;;;;;;;170.52;103.65;;;9.40;95.50;;;;;;5092539;28;20024;-71
2020/12/25 09:36:59;;;;;;;1046.78;735.67;;;9.40;95.10;;;;;;5091654;28;20036;-69
2020/12/25 09:39:25;;;;;;;591.72;417.67;;;9.50;95.70;;;;;;5092155;28;20025;-71
2020/12/25 09:41:50;;;;;;;262.85;166.77;;;9.50;95.60;;;;;;5092896;28;20016;-70
2020/12/25 09:44:16;;;;;;;238.77;144.93;;;9.50;95.90;;;;;;5092199;28;20054;-71
2020/12/25 09:46:42;;;;;;;437.55;283.42;;;9.50;95.20;;;;;;5093706;28;20046;-70
2020/12/25 09:49:08;;;;;;;682.63;422.73;;;9.50;95.50;;;;;;5091821;28;20128;-71
2020/12/25 09:51:34;;;;;;;378.85;214.00;;;9.50;95.20;;;;;;5093380;28;20070;-70
2020/12/25 09:54:00;;;;;;;422.20;234.32;;;9.50;95.50;;;;;;5091995;28;20059;-72
2020/12/25 09:56:25;;;;;;;870.75;544.65;;;9.50;95.50;;;;;;5092791;28;20032;-70
2020/12/25 09:58:51;;;;;;;811.60;462.65;;;9.50;95.80;;;;;;5091959;28;20475;-71
2020/12/25 10:01:19;;;;;;;633.33;410.27;;;9.50;95.20;;;;;;5093234;28;20024;-71
2020/12/25 10:03:45;;;;;;;356.27;236.88;;;9.50;95.40;;;;;;5091599;28;20024;-68
2020/12/25 10:06:11;;;;;;;693.75;496.50;;;9.60;95.30;;;;;;5095605;28;20043;-70
2020/12/25 10:08:37;;;;;;;622.38;396.20;;;9.60;95.30;;;;;;5095614;28;20479;-73
2020/12/25 10:11:03;;;;;;;364.08;198.52;;;9.50;95.30;;;;;;5096299;28;20024;-72
2020/12/25 10:13:29;;;;;;;324.67;171.57;;;9.50;94.90;;;;;;5095264;28;20054;-71
2020/12/25 10:15:54;;;;;;;775.10;454.42;;;9.60;95.10;;;;;;5094870;28;20028;-71
2020/12/25 10:18:20;;;;;;;899.45;551.72;;;9.60;94.50;;;;;;5094107;28;20024;-71
2020/12/25 10:20:47;;;;;;;121.82;67.68;;;9.60;95.30;;;;;;5095330;28;20043;-72
2020/12/25 10:23:13;;;;;;;220.77;122.18;;;9.50;95.10;;;;;;5093760;28;20475;-72
2020/12/25 10:25:39;;;;;;;393.55;210.00;;;9.50;95.50;;;;;;5094040;28;20028;-72
2020/12/25 10:28:04;;;;;;;422.77;236.57;;;9.50;95.30;;;;;;5094081;28;20479;-70
2020/12/25 10:30:30;;;;;;;96.85;55.63;;;9.50;95.10;;;;;;5096156;28;20484;-70
2020/12/25 10:32:56;;;;;;;313.48;191.27;;;9.50;94.90;;;;;;5094684;28;20376;-71
2020/12/25 10:35:22;;;;;;;84.85;50.03;;;9.40;95.00;;;;;;5095013;28;20090;-71
2020/12/25 10:37:47;;;;;;;359.50;213.38;;;9.40;94.80;;;;;;5094936;28;20028;-70
2020/12/25 10:40:13;;;;;;;134.60;77.88;;;9.40;95.20;;;;;;5095154;28;20428;-70
2020/12/25 10:42:40;;;;;;;298.60;165.40;;;9.50;95.00;;;;;;5096186;28;20448;-71
2020/12/25 10:45:06;;;;;;;253.13;139.10;;;9.50;95.40;;;;;;5095528;28;20053;-70
2020/12/25 10:47:33;;;;;;;326.63;198.98;;;9.40;95.30;;;;;;5094738;28;20024;-71
2020/12/25 10:49:58;;;;;;;31.48;23.08;;;9.40;95.60;;;;;;5094800;28;20052;-70
2020/12/25 10:52:24;;;;;;;44.97;30.40;;;9.40;95.30;;;;;;5095781;28;20063;-72
2020/12/25 10:54:50;;;;;;;117.25;72.60;;;9.30;95.20;;;;;;5095200;28;20032;-70
2020/12/25 10:57:15;;;;;;;115.65;68.18;;;9.40;95.10;;;;;;5095647;28;20372;-71
2020/12/25 10:59:41;;;;;;;232.88;153.88;;;9.40;95.10;;;;;;5095556;28;20032;-68
2020/12/25 11:02:07;;;;;;;278.52;139.95;;;9.40;95.50;;;;;;5094526;28;20043;-71
2020/12/25 11:04:33;;;;;;;251.68;123.88;;;9.40;95.50;;;;;;5095866;28;20020;-71
2020/12/25 11:06:59;;;;;;;91.38;50.38;;;9.40;95.40;;;;;;5094152;28;20059;-71
2020/12/25 11:09:24;;;;;;;227.18;118.93;;;9.30;95.30;;;;;;5095522;28;20460;-72
2020/12/25 11:11:50;;;;;;;99.22;52.58;;;9.30;95.60;;;;;;5094172;28;20464;-70
2020/12/25 11:14:16;;;;;;;320.30;152.18;;;9.20;95.70;;;;;;5095649;28;20078;-70
2020/12/25 11:16:42;;;;;;;425.75;208.48;;;9.20;95.90;;;;;;5093654;28;20043;-70
2020/12/25 11:19:08;;;;;;;133.85;62.85;;;9.20;95.90;;;;;;5093713;28;20030;-70
2020/12/25 11:21:35;;;;;;;785.67;372.10;;;9.10;96.20;;;;;;5094198;28;20027;-72
2020/12/25 11:24:02;;;;;;;247.40;106.82;;;9.00;96.30;;;;;;5093572;28;20032;-71
2020/12/25 11:26:33;;;;;;;108.55;55.40;;;9.00;96.10;;;;;;5093758;28;20081;-71
2020/12/25 11:29:08;;;;;;;1173.68;588.97;;;8.90;96.50;;;;;;5094897;28;20035;-72
2020/12/25 11:31:35;;;;;;;59.67;34.20;;;9.00;96.20;;;;;;5094380;28;20479;-73
2020/12/25 11:34:01;;;;;;;384.88;186.45;;;9.00;96.30;;;;;;5093781;28;20028;-74
2020/12/25 11:36:36;;;;;;;328.70;166.00;;;9.10;96.10;;;;;;5093931;28;20035;-71
2020/12/25 11:39:04;;;;;;;52.63;33.42;;;9.10;95.90;;;;;;5093938;28;20027;-72
2020/12/25 11:41:30;;;;;;;188.88;80.90;;;9.10;95.60;;;;;;5094760;28;20031;-71
2020/12/25 11:43:56;;;;;;;713.85;360.73;;;9.10;95.70;;;;;;5094143;28;20146;-71
2020/12/25 11:46:25;;;;;;;326.83;154.60;;;9.10;96.00;;;;;;5093478;28;20080;-71
2020/12/25 11:48:52;;;;;;;114.95;56.50;;;9.20;95.70;;;;;;5093088;28;20028;-70
2020/12/25 11:51:23;;;;;;;284.75;132.93;;;9.20;95.60;;;;;;5094709;28;20028;-72
2020/12/25 11:53:50;;;;;;;68.30;37.15;;;9.20;95.70;;;;;;5091913;28;20024;-71
2020/12/25 11:56:21;;;;;;;77.78;42.80;;;9.20;95.60;;;;;;5093372;28;20031;-70
2020/12/25 11:58:47;;;;;;;131.50;65.45;;;9.20;95.90;;;;;;5092428;28;20016;-71
2020/12/25 12:01:13;;;;;;;603.00;329.45;;;9.30;95.30;;;;;;5093195;28;20023;-72
2020/12/25 12:03:39;;;;;;;240.00;113.10;;;9.30;95.30;;;;;;5094752;28;20459;-72
2020/12/25 12:06:05;;;;;;;262.13;126.47;;;9.40;95.00;;;;;;5094627;28;20032;-72
2020/12/25 12:08:31;;;;;;;239.48;111.45;;;9.40;95.00;;;;;;5094500;28;20051;-74
2020/12/25 12:10:56;;;;;;;1057.97;553.05;;;9.40;95.00;;;;;;5092602;28;20127;-72
2020/12/25 12:13:22;;;;;;;239.30;120.68;;;9.40;95.40;;;;;;5094223;28;20028;-71
2020/12/25 12:15:48;;;;;;;188.70;98.13;;;9.40;95.10;;;;;;5092338;28;20032;-73
2020/12/25 12:18:14;;;;;;;378.10;195.75;;;9.40;94.90;;;;;;5093062;28;20052;-74
2020/12/25 12:20:41;;;;;;;324.65;164.30;;;9.40;95.70;;;;;;5093168;28;20055;-73
2020/12/25 12:23:07;;;;;;;339.08;179.68;;;9.30;95.50;;;;;;5092857;28;20073;-72
2020/12/25 12:25:32;;;;;;;558.35;329.90;;;9.40;95.20;;;;;;5093029;28;20391;-71
2020/12/25 12:27:58;;;;;;;124.97;75.78;;;9.40;95.00;;;;;;5093680;28;20024;-71
2020/12/25 12:30:24;;;;;;;119.13;69.30;;;9.30;95.40;;;;;;5092743;28;20024;-72